sensor_id;sensor_type;location;lat;lon;timestamp;P1;durP1;ratioP1;P2;durP2;ratioP2
17384;SDS011;8810;48.680;8.894;2023-01-10T00:02:26;0.47;;;0.37;;
17384;SDS011;8810;48.680;8.894;2023-01-10T00:04:53;0.40;;;0.40;;
17384;SDS011;8810;48.680;8.894;2023-01-10T00:07:20;0.67;;;0.43;;
17384;SDS011;8810;48.680;8.894;2023-01-10T00:09:46;1.53;;;0.40;;
17384;SDS011;8810;48.680;8.894;2023-01-10T00:12:13;0.50;;;0.30;;
17384;SDS011;8810;48.680;8.894;2023-01-10T00:14:58;1.17;;;0.70;;
17384;SDS011;8810;48.680;8.894;2023-01-10T00:17:25;1.10;;;0.57;;
17384;SDS011;8810;48.680;8.894;2023-01-10T00:19:51;0.40;;;0.30;;
17384;SDS011;8810;48.680;8.894;2023-01-10T00:22:18;1.33;;;0.63;;
17384;SDS011;8810;48.680;8.894;2023-01-10T00:24:49;0.90;;;0.60;;
17384;SDS011;8810;48.680;8.894;2023-01-10T00:27:16;0.80;;;0.70;;
17384;SDS011;8810;48.680;8.894;2023-01-10T00:29:45;0.70;;;0.70;;
17384;SDS011;8810;48.680;8.894;2023-01-10T00:32:15;1.23;;;0.70;;
17384;SDS011;8810;48.680;8.894;2023-01-10T00:34:41;1.10;;;0.70;;
17384;SDS011;8810;48.680;8.894;2023-01-10T00:37:08;1.30;;;0.70;;
17384;SDS011;8810;48.680;8.894;2023-01-10T00:39:35;2.37;;;0.83;;
17384;SDS011;8810;48.680;8.894;2023-01-10T00:42:02;0.80;;;0.80;;
17384;SDS011;8810;48.680;8.894;2023-01-10T00:45:01;1.03;;;0.70;;
17384;SDS011;8810;48.680;8.894;2023-01-10T00:47:29;1.43;;;0.80;;
17384;SDS011;8810;48.680;8.894;2023-01-10T00:49:56;0.80;;;0.80;;
17384;SDS011;8810;48.680;8.894;2023-01-10T00:52:23;2.67;;;1.00;;
17384;SDS011;8810;48.680;8.894;2023-01-10T00:54:50;2.40;;;1.13;;
17384;SDS011;8810;48.680;8.894;2023-01-10T00:57:17;3.57;;;1.00;;
17384;SDS011;8810;48.680;8.894;2023-01-10T00:59:43;0.97;;;0.80;;
17384;SDS011;8810;48.680;8.894;2023-01-10T01:02:10;5.03;;;0.70;;
17384;SDS011;8810;48.680;8.894;2023-01-10T01:04:38;0.70;;;0.53;;
17384;SDS011;8810;48.680;8.894;2023-01-10T01:07:05;0.67;;;0.60;;
17384;SDS011;8810;48.680;8.894;2023-01-10T01:09:32;0.80;;;0.73;;
17384;SDS011;8810;48.680;8.894;2023-01-10T01:12:19;0.90;;;0.70;;
17384;SDS011;8810;48.680;8.894;2023-01-10T01:14:46;1.83;;;0.60;;
17384;SDS011;8810;48.680;8.894;2023-01-10T01:17:12;0.83;;;0.50;;
17384;SDS011;8810;48.680;8.894;2023-01-10T01:19:41;1.07;;;0.63;;
17384;SDS011;8810;48.680;8.894;2023-01-10T01:22:07;2.00;;;0.57;;
17384;SDS011;8810;48.680;8.894;2023-01-10T01:24:34;0.93;;;0.43;;
17384;SDS011;8810;48.680;8.894;2023-01-10T01:27:01;0.40;;;0.40;;
17384;SDS011;8810;48.680;8.894;2023-01-10T01:29:28;0.67;;;0.50;;
17384;SDS011;8810;48.680;8.894;2023-01-10T01:31:55;4.03;;;0.60;;
17384;SDS011;8810;48.680;8.894;2023-01-10T01:34:22;1.97;;;0.50;;
17384;SDS011;8810;48.680;8.894;2023-01-10T01:36:50;0.80;;;0.57;;
17384;SDS011;8810;48.680;8.894;2023-01-10T01:39:17;1.40;;;0.60;;
17384;SDS011;8810;48.680;8.894;2023-01-10T01:41:43;0.77;;;0.43;;
17384;SDS011;8810;48.680;8.894;2023-01-10T01:44:22;0.63;;;0.30;;
17384;SDS011;8810;48.680;8.894;2023-01-10T01:46:55;2.20;;;0.50;;
17384;SDS011;8810;48.680;8.894;2023-01-10T01:49:26;0.50;;;0.40;;
17384;SDS011;8810;48.680;8.894;2023-01-10T01:51:57;0.63;;;0.53;;
17384;SDS011;8810;48.680;8.894;2023-01-10T01:54:28;3.07;;;0.30;;
17384;SDS011;8810;48.680;8.894;2023-01-10T01:56:56;0.60;;;0.30;;
17384;SDS011;8810;48.680;8.894;2023-01-10T01:59:29;0.40;;;0.37;;
17384;SDS011;8810;48.680;8.894;2023-01-10T02:02:00;0.57;;;0.47;;
17384;SDS011;8810;48.680;8.894;2023-01-10T02:04:31;0.97;;;0.30;;
17384;SDS011;8810;48.680;8.894;2023-01-10T02:07:03;1.13;;;0.60;;
17384;SDS011;8810;48.680;8.894;2023-01-10T02:09:31;0.90;;;0.60;;
17384;SDS011;8810;48.680;8.894;2023-01-10T02:12:04;1.30;;;0.67;;
17384;SDS011;8810;48.680;8.894;2023-01-10T02:14:30;1.87;;;0.63;;
17384;SDS011;8810;48.680;8.894;2023-01-10T02:16:59;1.00;;;0.67;;
17384;SDS011;8810;48.680;8.894;2023-01-10T02:19:27;0.90;;;0.70;;
17384;SDS011;8810;48.680;8.894;2023-01-10T02:25:26;2.33;;;0.30;;
17384;SDS011;8810;48.680;8.894;2023-01-10T02:28:24;0.60;;;0.23;;
17384;SDS011;8810;48.680;8.894;2023-01-10T02:31:33;0.37;;;0.20;;
17384;SDS011;8810;48.680;8.894;2023-01-10T02:34:06;0.60;;;0.20;;
17384;SDS011;8810;48.680;8.894;2023-01-10T02:36:37;1.77;;;0.30;;
17384;SDS011;8810;48.680;8.894;2023-01-10T02:39:14;1.43;;;0.37;;
17384;SDS011;8810;48.680;8.894;2023-01-10T02:41:47;0.20;;;0.20;;
17384;SDS011;8810;48.680;8.894;2023-01-10T02:44:18;2.57;;;0.20;;
17384;SDS011;8810;48.680;8.894;2023-01-10T02:46:49;0.27;;;0.20;;
17384;SDS011;8810;48.680;8.894;2023-01-10T02:49:18;0.20;;;0.20;;
17384;SDS011;8810;48.680;8.894;2023-01-10T02:51:45;1.13;;;0.30;;
17384;SDS011;8810;48.680;8.894;2023-01-10T02:54:12;1.30;;;0.27;;
17384;SDS011;8810;48.680;8.894;2023-01-10T02:56:54;1.20;;;0.40;;
17384;SDS011;8810;48.680;8.894;2023-01-10T03:02:40;1.53;;;0.47;;
17384;SDS011;8810;48.680;8.894;2023-01-10T03:05:27;1.13;;;0.33;;
17384;SDS011;8810;48.680;8.894;2023-01-10T03:08:05;0.77;;;0.50;;
17384;SDS011;8810;48.680;8.894;2023-01-10T03:10:41;2.03;;;0.60;;
17384;SDS011;8810;48.680;8.894;2023-01-10T03:13:13;2.70;;;0.73;;
17384;SDS011;8810;48.680;8.894;2023-01-10T03:15:44;1.13;;;0.43;;
17384;SDS011;8810;48.680;8.894;2023-01-10T03:18:15;3.70;;;0.70;;
17384;SDS011;8810;48.680;8.894;2023-01-10T03:20:46;2.40;;;1.10;;
17384;SDS011;8810;48.680;8.894;2023-01-10T03:23:16;4.03;;;0.70;;
17384;SDS011;8810;48.680;8.894;2023-01-10T03:25:44;1.87;;;0.83;;
17384;SDS011;8810;48.680;8.894;2023-01-10T03:28:13;1.77;;;0.90;;
17384;SDS011;8810;48.680;8.894;2023-01-10T03:30:43;1.10;;;0.63;;
17384;SDS011;8810;48.680;8.894;2023-01-10T03:33:15;1.70;;;0.70;;
17384;SDS011;8810;48.680;8.894;2023-01-10T03:35:49;1.57;;;0.63;;
17384;SDS011;8810;48.680;8.894;2023-01-10T03:38:25;1.27;;;0.60;;
17384;SDS011;8810;48.680;8.894;2023-01-10T03:40:57;1.60;;;0.67;;
17384;SDS011;8810;48.680;8.894;2023-01-10T03:43:31;0.70;;;0.40;;
17384;SDS011;8810;48.680;8.894;2023-01-10T03:46:24;0.53;;;0.50;;
17384;SDS011;8810;48.680;8.894;2023-01-10T03:48:57;1.90;;;0.30;;
17384;SDS011;8810;48.680;8.894;2023-01-10T03:51:29;1.63;;;0.47;;
17384;SDS011;8810;48.680;8.894;2023-01-10T03:53:58;1.90;;;0.30;;
17384;SDS011;8810;48.680;8.894;2023-01-10T03:56:25;0.53;;;0.40;;
17384;SDS011;8810;48.680;8.894;2023-01-10T03:58:52;0.67;;;0.40;;
17384;SDS011;8810;48.680;8.894;2023-01-10T04:01:19;0.37;;;0.30;;
17384;SDS011;8810;48.680;8.894;2023-01-10T04:03:46;2.30;;;0.57;;
17384;SDS011;8810;48.680;8.894;2023-01-10T04:06:12;0.40;;;0.37;;
17384;SDS011;8810;48.680;8.894;2023-01-10T04:08:42;2.40;;;0.50;;
17384;SDS011;8810;48.680;8.894;2023-01-10T04:11:09;0.50;;;0.30;;
17384;SDS011;8810;48.680;8.894;2023-01-10T04:13:36;1.97;;;0.50;;
17384;SDS011;8810;48.680;8.894;2023-01-10T04:16:06;0.33;;;0.20;;
17384;SDS011;8810;48.680;8.894;2023-01-10T04:18:33;6.30;;;0.40;;
17384;SDS011;8810;48.680;8.894;2023-01-10T04:21:00;0.87;;;0.40;;
17384;SDS011;8810;48.680;8.894;2023-01-10T04:23:26;1.90;;;0.40;;
17384;SDS011;8810;48.680;8.894;2023-01-10T04:25:54;1.23;;;0.20;;
17384;SDS011;8810;48.680;8.894;2023-01-10T04:28:21;1.40;;;0.60;;
17384;SDS011;8810;48.680;8.894;2023-01-10T04:30:48;0.63;;;0.60;;
17384;SDS011;8810;48.680;8.894;2023-01-10T04:33:15;1.57;;;1.47;;
17384;SDS011;8810;48.680;8.894;2023-01-10T04:35:45;1.37;;;0.50;;
17384;SDS011;8810;48.680;8.894;2023-01-10T04:38:12;2.20;;;0.67;;
17384;SDS011;8810;48.680;8.894;2023-01-10T04:40:39;0.73;;;0.47;;
17384;SDS011;8810;48.680;8.894;2023-01-10T04:43:09;0.70;;;0.50;;
17384;SDS011;8810;48.680;8.894;2023-01-10T04:45:36;0.63;;;0.50;;
17384;SDS011;8810;48.680;8.894;2023-01-10T04:48:03;1.77;;;0.67;;
17384;SDS011;8810;48.680;8.894;2023-01-10T04:50:30;3.90;;;0.67;;
17384;SDS011;8810;48.680;8.894;2023-01-10T04:52:57;1.10;;;0.70;;
17384;SDS011;8810;48.680;8.894;2023-01-10T04:55:24;3.13;;;0.80;;
17384;SDS011;8810;48.680;8.894;2023-01-10T04:57:51;3.50;;;0.90;;
17384;SDS011;8810;48.680;8.894;2023-01-10T05:00:19;5.23;;;0.97;;
17384;SDS011;8810;48.680;8.894;2023-01-10T05:02:46;4.57;;;1.30;;
17384;SDS011;8810;48.680;8.894;2023-01-10T05:05:13;6.73;;;1.20;;
17384;SDS011;8810;48.680;8.894;2023-01-10T05:07:40;3.03;;;0.90;;
17384;SDS011;8810;48.680;8.894;2023-01-10T05:10:07;3.10;;;1.00;;
17384;SDS011;8810;48.680;8.894;2023-01-10T05:12:35;8.10;;;1.47;;
17384;SDS011;8810;48.680;8.894;2023-01-10T05:15:02;3.83;;;1.40;;
17384;SDS011;8810;48.680;8.894;2023-01-10T05:17:30;5.40;;;1.30;;
17384;SDS011;8810;48.680;8.894;2023-01-10T05:19:57;9.00;;;1.90;;
17384;SDS011;8810;48.680;8.894;2023-01-10T05:22:24;7.30;;;2.40;;
17384;SDS011;8810;48.680;8.894;2023-01-10T05:24:51;4.37;;;1.47;;
17384;SDS011;8810;48.680;8.894;2023-01-10T05:27:17;7.33;;;1.90;;
17384;SDS011;8810;48.680;8.894;2023-01-10T05:29:44;4.40;;;1.23;;
17384;SDS011;8810;48.680;8.894;2023-01-10T05:32:11;3.47;;;1.70;;
17384;SDS011;8810;48.680;8.894;2023-01-10T05:34:39;9.83;;;1.90;;
17384;SDS011;8810;48.680;8.894;2023-01-10T05:37:06;6.90;;;1.93;;
17384;SDS011;8810;48.680;8.894;2023-01-10T05:39:33;8.37;;;1.90;;
17384;SDS011;8810;48.680;8.894;2023-01-10T05:42:00;8.10;;;1.90;;
17384;SDS011;8810;48.680;8.894;2023-01-10T05:44:28;9.33;;;2.60;;
17384;SDS011;8810;48.680;8.894;2023-01-10T05:46:54;11.70;;;2.17;;
17384;SDS011;8810;48.680;8.894;2023-01-10T05:49:21;8.33;;;2.97;;
17384;SDS011;8810;48.680;8.894;2023-01-10T05:51:49;9.67;;;3.73;;
17384;SDS011;8810;48.680;8.894;2023-01-10T05:54:16;8.23;;;2.77;;
17384;SDS011;8810;48.680;8.894;2023-01-10T05:56:43;10.77;;;2.67;;
17384;SDS011;8810;48.680;8.894;2023-01-10T05:59:10;7.43;;;1.97;;
17384;SDS011;8810;48.680;8.894;2023-01-10T06:01:37;12.43;;;2.80;;
17384;SDS011;8810;48.680;8.894;2023-01-10T06:04:03;3.63;;;1.93;;
17384;SDS011;8810;48.680;8.894;2023-01-10T06:06:30;8.67;;;2.03;;
17384;SDS011;8810;48.680;8.894;2023-01-10T06:08:59;13.40;;;1.80;;
17384;SDS011;8810;48.680;8.894;2023-01-10T06:11:26;8.33;;;1.90;;
17384;SDS011;8810;48.680;8.894;2023-01-10T06:13:54;10.63;;;1.67;;
17384;SDS011;8810;48.680;8.894;2023-01-10T06:16:21;8.97;;;1.80;;
17384;SDS011;8810;48.680;8.894;2023-01-10T06:18:47;7.67;;;1.70;;
17384;SDS011;8810;48.680;8.894;2023-01-10T06:21:14;7.90;;;1.73;;
17384;SDS011;8810;48.680;8.894;2023-01-10T06:23:41;10.67;;;2.00;;
17384;SDS011;8810;48.680;8.894;2023-01-10T06:26:09;12.33;;;2.07;;
17384;SDS011;8810;48.680;8.894;2023-01-10T06:28:36;7.40;;;1.77;;
17384;SDS011;8810;48.680;8.894;2023-01-10T06:31:05;7.73;;;2.13;;
17384;SDS011;8810;48.680;8.894;2023-01-10T06:33:31;7.53;;;2.23;;
17384;SDS011;8810;48.680;8.894;2023-01-10T06:35:58;6.93;;;2.30;;
17384;SDS011;8810;48.680;8.894;2023-01-10T06:38:25;9.30;;;2.43;;
17384;SDS011;8810;48.680;8.894;2023-01-10T06:40:52;6.53;;;1.93;;
17384;SDS011;8810;48.680;8.894;2023-01-10T06:43:20;9.00;;;2.20;;
17384;SDS011;8810;48.680;8.894;2023-01-10T06:45:47;9.77;;;1.90;;
17384;SDS011;8810;48.680;8.894;2023-01-10T06:48:14;4.63;;;1.33;;
17384;SDS011;8810;48.680;8.894;2023-01-10T06:50:41;3.57;;;1.20;;
17384;SDS011;8810;48.680;8.894;2023-01-10T06:53:07;9.23;;;1.60;;
17384;SDS011;8810;48.680;8.894;2023-01-10T06:55:34;9.13;;;1.87;;
17384;SDS011;8810;48.680;8.894;2023-01-10T06:58:02;6.10;;;1.30;;
17384;SDS011;8810;48.680;8.894;2023-01-10T07:00:31;5.30;;;1.70;;
17384;SDS011;8810;48.680;8.894;2023-01-10T07:02:58;5.87;;;1.77;;
17384;SDS011;8810;48.680;8.894;2023-01-10T07:05:26;8.63;;;1.70;;
17384;SDS011;8810;48.680;8.894;2023-01-10T07:07:53;7.53;;;1.80;;
17384;SDS011;8810;48.680;8.894;2023-01-10T07:10:21;9.87;;;1.20;;
17384;SDS011;8810;48.680;8.894;2023-01-10T07:12:48;8.03;;;1.83;;
17384;SDS011;8810;48.680;8.894;2023-01-10T07:15:15;5.47;;;1.57;;
17384;SDS011;8810;48.680;8.894;2023-01-10T07:17:43;3.70;;;1.43;;
17384;SDS011;8810;48.680;8.894;2023-01-10T07:20:10;7.20;;;1.63;;
17384;SDS011;8810;48.680;8.894;2023-01-10T07:22:37;6.53;;;1.60;;
17384;SDS011;8810;48.680;8.894;2023-01-10T07:25:04;7.03;;;1.93;;
17384;SDS011;8810;48.680;8.894;2023-01-10T07:27:32;7.60;;;2.43;;
17384;SDS011;8810;48.680;8.894;2023-01-10T07:29:59;6.37;;;2.03;;
17384;SDS011;8810;48.680;8.894;2023-01-10T07:32:26;8.80;;;1.93;;
17384;SDS011;8810;48.680;8.894;2023-01-10T07:34:54;5.93;;;2.03;;
17384;SDS011;8810;48.680;8.894;2023-01-10T07:37:21;6.93;;;1.70;;
17384;SDS011;8810;48.680;8.894;2023-01-10T07:39:48;6.53;;;1.90;;
17384;SDS011;8810;48.680;8.894;2023-01-10T07:42:15;8.97;;;1.60;;
17384;SDS011;8810;48.680;8.894;2023-01-10T07:44:41;3.47;;;1.00;;
17384;SDS011;8810;48.680;8.894;2023-01-10T07:47:08;7.80;;;1.90;;
17384;SDS011;8810;48.680;8.894;2023-01-10T07:49:35;6.47;;;1.67;;
17384;SDS011;8810;48.680;8.894;2023-01-10T07:52:03;5.27;;;1.63;;
17384;SDS011;8810;48.680;8.894;2023-01-10T07:54:32;9.73;;;1.80;;
17384;SDS011;8810;48.680;8.894;2023-01-10T07:57:00;3.67;;;1.57;;
17384;SDS011;8810;48.680;8.894;2023-01-10T07:59:27;6.07;;;1.60;;
17384;SDS011;8810;48.680;8.894;2023-01-10T08:01:54;5.37;;;1.93;;
17384;SDS011;8810;48.680;8.894;2023-01-10T08:04:20;6.20;;;2.10;;
17384;SDS011;8810;48.680;8.894;2023-01-10T08:06:47;7.10;;;1.90;;
17384;SDS011;8810;48.680;8.894;2023-01-10T08:09:17;4.43;;;1.60;;
17384;SDS011;8810;48.680;8.894;2023-01-10T08:11:43;7.33;;;1.90;;
17384;SDS011;8810;48.680;8.894;2023-01-10T08:14:10;9.50;;;2.03;;
17384;SDS011;8810;48.680;8.894;2023-01-10T08:16:37;5.67;;;2.40;;
17384;SDS011;8810;48.680;8.894;2023-01-10T08:19:04;5.60;;;1.93;;
17384;SDS011;8810;48.680;8.894;2023-01-10T08:21:31;8.73;;;2.77;;
17384;SDS011;8810;48.680;8.894;2023-01-10T08:23:58;5.53;;;2.23;;
17384;SDS011;8810;48.680;8.894;2023-01-10T08:26:26;10.53;;;2.17;;
17384;SDS011;8810;48.680;8.894;2023-01-10T08:28:53;9.03;;;2.10;;
17384;SDS011;8810;48.680;8.894;2023-01-10T08:31:20;5.60;;;2.60;;
17384;SDS011;8810;48.680;8.894;2023-01-10T08:33:47;6.30;;;1.40;;
17384;SDS011;8810;48.680;8.894;2023-01-10T08:36:14;7.90;;;2.13;;
17384;SDS011;8810;48.680;8.894;2023-01-10T08:38:42;6.23;;;1.73;;
17384;SDS011;8810;48.680;8.894;2023-01-10T08:41:09;6.60;;;2.47;;
17384;SDS011;8810;48.680;8.894;2023-01-10T08:43:37;7.20;;;1.83;;
17384;SDS011;8810;48.680;8.894;2023-01-10T08:46:04;3.47;;;1.50;;
17384;SDS011;8810;48.680;8.894;2023-01-10T08:48:31;8.57;;;1.43;;
17384;SDS011;8810;48.680;8.894;2023-01-10T08:51:03;8.07;;;1.30;;
17384;SDS011;8810;48.680;8.894;2023-01-10T08:53:30;6.30;;;1.53;;
17384;SDS011;8810;48.680;8.894;2023-01-10T08:55:57;6.77;;;1.90;;
17384;SDS011;8810;48.680;8.894;2023-01-10T08:58:24;6.43;;;1.60;;
17384;SDS011;8810;48.680;8.894;2023-01-10T09:00:52;4.00;;;1.40;;
17384;SDS011;8810;48.680;8.894;2023-01-10T09:03:19;4.73;;;1.43;;
17384;SDS011;8810;48.680;8.894;2023-01-10T09:05:46;5.80;;;1.57;;
17384;SDS011;8810;48.680;8.894;2023-01-10T09:08:12;6.10;;;1.90;;
17384;SDS011;8810;48.680;8.894;2023-01-10T09:10:39;5.83;;;1.70;;
17384;SDS011;8810;48.680;8.894;2023-01-10T09:13:06;7.90;;;1.70;;
17384;SDS011;8810;48.680;8.894;2023-01-10T09:15:34;7.37;;;1.90;;
17384;SDS011;8810;48.680;8.894;2023-01-10T09:18:04;6.37;;;1.70;;
17384;SDS011;8810;48.680;8.894;2023-01-10T09:20:32;4.33;;;1.47;;
17384;SDS011;8810;48.680;8.894;2023-01-10T09:23:03;10.10;;;3.03;;
17384;SDS011;8810;48.680;8.894;2023-01-10T09:25:31;11.47;;;2.33;;
17384;SDS011;8810;48.680;8.894;2023-01-10T09:27:58;8.70;;;2.00;;
17384;SDS011;8810;48.680;8.894;2023-01-10T09:30:27;7.90;;;2.13;;
17384;SDS011;8810;48.680;8.894;2023-01-10T09:32:55;4.37;;;1.77;;
17384;SDS011;8810;48.680;8.894;2023-01-10T09:35:24;5.67;;;1.90;;
17384;SDS011;8810;48.680;8.894;2023-01-10T09:37:53;10.93;;;2.20;;
17384;SDS011;8810;48.680;8.894;2023-01-10T09:40:22;6.07;;;1.70;;
17384;SDS011;8810;48.680;8.894;2023-01-10T09:43:03;7.83;;;1.83;;
17384;SDS011;8810;48.680;8.894;2023-01-10T09:45:37;7.87;;;2.17;;
17384;SDS011;8810;48.680;8.894;2023-01-10T09:48:12;8.23;;;1.60;;
17384;SDS011;8810;48.680;8.894;2023-01-10T09:50:46;7.57;;;1.60;;
17384;SDS011;8810;48.680;8.894;2023-01-10T09:53:26;6.43;;;1.50;;
17384;SDS011;8810;48.680;8.894;2023-01-10T09:55:56;9.13;;;1.50;;
17384;SDS011;8810;48.680;8.894;2023-01-10T09:58:26;6.50;;;1.67;;
17384;SDS011;8810;48.680;8.894;2023-01-10T10:00:56;7.73;;;1.57;;
17384;SDS011;8810;48.680;8.894;2023-01-10T10:03:25;5.90;;;1.90;;
17384;SDS011;8810;48.680;8.894;2023-01-10T10:05:58;8.27;;;1.67;;
17384;SDS011;8810;48.680;8.894;2023-01-10T10:08:25;6.90;;;1.73;;
17384;SDS011;8810;48.680;8.894;2023-01-10T10:10:58;3.77;;;1.53;;
17384;SDS011;8810;48.680;8.894;2023-01-10T10:13:33;6.67;;;1.90;;
17384;SDS011;8810;48.680;8.894;2023-01-10T10:16:13;2.97;;;1.30;;
17384;SDS011;8810;48.680;8.894;2023-01-10T10:18:53;2.57;;;1.40;;
17384;SDS011;8810;48.680;8.894;2023-01-10T10:21:31;7.87;;;1.10;;
17384;SDS011;8810;48.680;8.894;2023-01-10T10:24:13;2.50;;;0.80;;
17384;SDS011;8810;48.680;8.894;2023-01-10T10:26:47;2.80;;;0.80;;
17384;SDS011;8810;48.680;8.894;2023-01-10T10:29:28;6.33;;;1.00;;
17384;SDS011;8810;48.680;8.894;2023-01-10T10:32:19;4.90;;;1.00;;
17384;SDS011;8810;48.680;8.894;2023-01-10T10:35:11;9.53;;;1.10;;
17384;SDS011;8810;48.680;8.894;2023-01-10T10:37:44;3.70;;;1.10;;
17384;SDS011;8810;48.680;8.894;2023-01-10T10:40:15;8.90;;;1.40;;
17384;SDS011;8810;48.680;8.894;2023-01-10T10:42:44;6.80;;;1.17;;
17384;SDS011;8810;48.680;8.894;2023-01-10T10:45:16;4.40;;;1.00;;
17384;SDS011;8810;48.680;8.894;2023-01-10T10:47:45;6.23;;;0.90;;
17384;SDS011;8810;48.680;8.894;2023-01-10T10:50:20;5.90;;;0.93;;
17384;SDS011;8810;48.680;8.894;2023-01-10T10:52:55;3.87;;;0.97;;
17384;SDS011;8810;48.680;8.894;2023-01-10T10:55:26;1.93;;;0.80;;
17384;SDS011;8810;48.680;8.894;2023-01-10T10:57:56;4.43;;;1.20;;
17384;SDS011;8810;48.680;8.894;2023-01-10T11:00:23;7.73;;;0.87;;
17384;SDS011;8810;48.680;8.894;2023-01-10T11:02:52;6.67;;;1.30;;
17384;SDS011;8810;48.680;8.894;2023-01-10T11:05:25;6.63;;;1.30;;
17384;SDS011;8810;48.680;8.894;2023-01-10T11:07:59;6.43;;;1.10;;
17384;SDS011;8810;48.680;8.894;2023-01-10T11:10:29;5.60;;;1.07;;
17384;SDS011;8810;48.680;8.894;2023-01-10T11:13:03;5.83;;;1.10;;
17384;SDS011;8810;48.680;8.894;2023-01-10T11:15:38;2.53;;;0.83;;
17384;SDS011;8810;48.680;8.894;2023-01-10T11:18:09;8.13;;;1.40;;
17384;SDS011;8810;48.680;8.894;2023-01-10T11:20:45;5.10;;;1.30;;
17384;SDS011;8810;48.680;8.894;2023-01-10T11:23:21;6.20;;;1.00;;
17384;SDS011;8810;48.680;8.894;2023-01-10T11:25:49;4.70;;;0.80;;
17384;SDS011;8810;48.680;8.894;2023-01-10T11:28:16;3.77;;;1.03;;
17384;SDS011;8810;48.680;8.894;2023-01-10T11:30:47;3.87;;;1.10;;
17384;SDS011;8810;48.680;8.894;2023-01-10T11:33:17;7.27;;;2.00;;
17384;SDS011;8810;48.680;8.894;2023-01-10T11:38:34;4.90;;;0.80;;
17384;SDS011;8810;48.680;8.894;2023-01-10T11:41:02;5.93;;;1.00;;
17384;SDS011;8810;48.680;8.894;2023-01-10T11:43:31;6.23;;;0.80;;
17384;SDS011;8810;48.680;8.894;2023-01-10T11:46:00;5.33;;;1.10;;
17384;SDS011;8810;48.680;8.894;2023-01-10T11:48:38;4.90;;;0.90;;
17384;SDS011;8810;48.680;8.894;2023-01-10T11:51:15;6.43;;;1.00;;
17384;SDS011;8810;48.680;8.894;2023-01-10T11:53:46;7.47;;;1.40;;
17384;SDS011;8810;48.680;8.894;2023-01-10T11:56:21;3.90;;;0.70;;
17384;SDS011;8810;48.680;8.894;2023-01-10T11:58:51;5.07;;;0.83;;
17384;SDS011;8810;48.680;8.894;2023-01-10T12:01:23;4.40;;;1.00;;
17384;SDS011;8810;48.680;8.894;2023-01-10T12:03:53;3.67;;;0.80;;
17384;SDS011;8810;48.680;8.894;2023-01-10T12:06:21;4.67;;;0.80;;
17384;SDS011;8810;48.680;8.894;2023-01-10T12:08:49;2.87;;;0.83;;
17384;SDS011;8810;48.680;8.894;2023-01-10T12:11:22;3.67;;;0.93;;
17384;SDS011;8810;48.680;8.894;2023-01-10T12:13:53;4.67;;;0.83;;
17384;SDS011;8810;48.680;8.894;2023-01-10T12:16:21;5.93;;;1.00;;
17384;SDS011;8810;48.680;8.894;2023-01-10T12:18:50;2.87;;;0.80;;
17384;SDS011;8810;48.680;8.894;2023-01-10T12:21:21;4.40;;;0.90;;
17384;SDS011;8810;48.680;8.894;2023-01-10T12:23:53;3.67;;;0.90;;
17384;SDS011;8810;48.680;8.894;2023-01-10T12:26:24;5.23;;;0.80;;
17384;SDS011;8810;48.680;8.894;2023-01-10T12:28:54;4.37;;;1.10;;
17384;SDS011;8810;48.680;8.894;2023-01-10T12:31:25;3.50;;;1.00;;
17384;SDS011;8810;48.680;8.894;2023-01-10T12:33:55;3.20;;;1.00;;
17384;SDS011;8810;48.680;8.894;2023-01-10T12:36:31;6.20;;;1.07;;
17384;SDS011;8810;48.680;8.894;2023-01-10T12:39:04;3.80;;;1.20;;
17384;SDS011;8810;48.680;8.894;2023-01-10T12:41:42;3.47;;;1.10;;
17384;SDS011;8810;48.680;8.894;2023-01-10T12:44:44;9.53;;;1.00;;
17384;SDS011;8810;48.680;8.894;2023-01-10T12:47:16;4.43;;;1.00;;
17384;SDS011;8810;48.680;8.894;2023-01-10T12:49:49;5.90;;;1.00;;
17384;SDS011;8810;48.680;8.894;2023-01-10T12:52:23;5.90;;;1.00;;
17384;SDS011;8810;48.680;8.894;2023-01-10T12:54:57;5.40;;;1.17;;
17384;SDS011;8810;48.680;8.894;2023-01-10T12:57:27;5.67;;;1.03;;
17384;SDS011;8810;48.680;8.894;2023-01-10T12:59:58;4.07;;;1.17;;
17384;SDS011;8810;48.680;8.894;2023-01-10T13:02:27;8.33;;;1.20;;
17384;SDS011;8810;48.680;8.894;2023-01-10T13:05:02;7.73;;;1.20;;
17384;SDS011;8810;48.680;8.894;2023-01-10T13:07:32;2.03;;;0.93;;
17384;SDS011;8810;48.680;8.894;2023-01-10T13:10:03;8.83;;;1.73;;
17384;SDS011;8810;48.680;8.894;2023-01-10T13:12:32;4.63;;;1.00;;
17384;SDS011;8810;48.680;8.894;2023-01-10T13:15:04;7.67;;;1.20;;
17384;SDS011;8810;48.680;8.894;2023-01-10T13:17:36;8.80;;;1.07;;
17384;SDS011;8810;48.680;8.894;2023-01-10T13:20:17;3.63;;;1.17;;
17384;SDS011;8810;48.680;8.894;2023-01-10T13:22:51;4.93;;;1.00;;
17384;SDS011;8810;48.680;8.894;2023-01-10T13:25:23;7.93;;;1.40;;
17384;SDS011;8810;48.680;8.894;2023-01-10T13:27:51;6.67;;;1.40;;
17384;SDS011;8810;48.680;8.894;2023-01-10T13:30:25;8.13;;;1.20;;
17384;SDS011;8810;48.680;8.894;2023-01-10T13:32:58;6.23;;;1.10;;
17384;SDS011;8810;48.680;8.894;2023-01-10T13:35:34;4.40;;;0.90;;
17384;SDS011;8810;48.680;8.894;2023-01-10T13:38:04;7.70;;;1.20;;
17384;SDS011;8810;48.680;8.894;2023-01-10T13:40:33;6.50;;;1.00;;
17384;SDS011;8810;48.680;8.894;2023-01-10T13:55:22;3.40;;;1.00;;
17384;SDS011;8810;48.680;8.894;2023-01-10T13:58:01;3.13;;;0.90;;
17384;SDS011;8810;48.680;8.894;2023-01-10T14:00:40;2.27;;;0.83;;
17384;SDS011;8810;48.680;8.894;2023-01-10T14:06:18;5.10;;;1.00;;
17384;SDS011;8810;48.680;8.894;2023-01-10T14:08:57;2.73;;;0.80;;
17384;SDS011;8810;48.680;8.894;2023-01-10T14:11:26;3.50;;;1.17;;
17384;SDS011;8810;48.680;8.894;2023-01-10T14:13:58;3.83;;;0.80;;
17384;SDS011;8810;48.680;8.894;2023-01-10T14:16:27;4.00;;;0.90;;
17384;SDS011;8810;48.680;8.894;2023-01-10T14:18:58;4.73;;;0.87;;
17384;SDS011;8810;48.680;8.894;2023-01-10T14:21:26;4.60;;;0.97;;
17384;SDS011;8810;48.680;8.894;2023-01-10T14:23:55;1.83;;;0.80;;
17384;SDS011;8810;48.680;8.894;2023-01-10T14:26:25;4.53;;;1.23;;
17384;SDS011;8810;48.680;8.894;2023-01-10T14:28:57;7.60;;;1.00;;
17384;SDS011;8810;48.680;8.894;2023-01-10T14:31:25;2.17;;;1.00;;
17384;SDS011;8810;48.680;8.894;2023-01-10T14:33:52;7.87;;;1.20;;
17384;SDS011;8810;48.680;8.894;2023-01-10T14:36:21;6.50;;;1.37;;
17384;SDS011;8810;48.680;8.894;2023-01-10T14:38:51;5.53;;;0.90;;
17384;SDS011;8810;48.680;8.894;2023-01-10T14:41:25;5.00;;;1.13;;
17384;SDS011;8810;48.680;8.894;2023-01-10T14:44:00;3.73;;;1.00;;
17384;SDS011;8810;48.680;8.894;2023-01-10T14:46:33;2.43;;;0.97;;
17384;SDS011;8810;48.680;8.894;2023-01-10T14:49:19;3.93;;;0.90;;
17384;SDS011;8810;48.680;8.894;2023-01-10T14:51:48;5.63;;;1.00;;
17384;SDS011;8810;48.680;8.894;2023-01-10T14:54:16;4.83;;;1.17;;
17384;SDS011;8810;48.680;8.894;2023-01-10T14:56:46;6.23;;;0.90;;
17384;SDS011;8810;48.680;8.894;2023-01-10T14:59:19;5.97;;;1.10;;
17384;SDS011;8810;48.680;8.894;2023-01-10T15:01:49;5.70;;;0.90;;
17384;SDS011;8810;48.680;8.894;2023-01-10T15:04:18;9.53;;;1.47;;
17384;SDS011;8810;48.680;8.894;2023-01-10T15:06:50;6.07;;;0.93;;
17384;SDS011;8810;48.680;8.894;2023-01-10T15:09:21;8.50;;;1.20;;
17384;SDS011;8810;48.680;8.894;2023-01-10T15:11:49;5.23;;;1.17;;
17384;SDS011;8810;48.680;8.894;2023-01-10T15:14:19;4.70;;;0.80;;
17384;SDS011;8810;48.680;8.894;2023-01-10T15:16:50;5.80;;;1.60;;
17384;SDS011;8810;48.680;8.894;2023-01-10T15:19:21;4.63;;;1.03;;
17384;SDS011;8810;48.680;8.894;2023-01-10T15:21:49;5.27;;;1.00;;
17384;SDS011;8810;48.680;8.894;2023-01-10T15:24:22;4.37;;;1.20;;
17384;SDS011;8810;48.680;8.894;2023-01-10T15:26:57;4.80;;;0.97;;
17384;SDS011;8810;48.680;8.894;2023-01-10T15:29:26;11.90;;;2.20;;
17384;SDS011;8810;48.680;8.894;2023-01-10T15:31:54;8.87;;;1.70;;
17384;SDS011;8810;48.680;8.894;2023-01-10T15:34:28;8.23;;;1.33;;
17384;SDS011;8810;48.680;8.894;2023-01-10T15:36:57;8.53;;;1.20;;
17384;SDS011;8810;48.680;8.894;2023-01-10T15:39:26;10.67;;;2.00;;
17384;SDS011;8810;48.680;8.894;2023-01-10T15:41:56;5.10;;;1.53;;
17384;SDS011;8810;48.680;8.894;2023-01-10T15:44:37;7.27;;;1.27;;